Time;durP1;ratioP1;P1;durP2;ratioP2;P2;SDS_P1;SDS_P2;PMS_P1;PMS_P2;Temp;Humidity;BMP_temperature;BMP_pressure;BME280_temperature;BME280_humidity;BME280_pressure;Samples;Min_cycle;Max_cycle;Signal;HPM_P1;HPM_P2
2022/10/19 00:01:46;;;;;;;;;;;;;;;14.99;100.00;100256.31;8304875;28;19939;-77
2022/10/19 00:05:47;;;;;;;;;;;;;;;14.99;100.00;100251.09;8305002;28;19933;-77
2022/10/19 00:09:49;;;;;;;;;;;;;;;14.98;100.00;100255.44;8316543;28;19929;-77
2022/10/19 00:13:50;;;;;;;;;;;;;;;15.00;100.00;100263.28;8317754;28;19929;-77
2022/10/19 00:17:54;;;;;;;;;;;;;;;14.99;100.00;100267.66;8286242;28;19943;-77
2022/10/19 00:21:56;;;;;;;;;;;;;;;14.99;100.00;100261.56;8316759;28;19937;-78
2022/10/19 00:25:58;;;;;;;;;;;;;;;14.99;100.00;100258.94;8314082;28;20318;-77
2022/10/19 00:30:00;;;;;;;;;;;;;;;15.01;100.00;100262.41;8314076;28;19933;-77
2022/10/19 00:34:01;;;;;;;;;;;;;;;15.01;100.00;100263.28;8315334;28;19933;-76
2022/10/19 00:38:03;;;;;;;;;;;;;;;15.01;100.00;100258.03;8333066;28;20334;-77
2022/10/19 00:42:04;;;;;;;;;;;;;;;15.01;100.00;100249.31;8328107;28;19939;-77
2022/10/19 00:46:11;;;;;;;;;;;;;;;14.99;100.00;100251.09;8326427;28;20257;-76
2022/10/19 00:50:13;;;;;;;;;;;;;;;14.98;100.00;100250.22;8332914;28;19933;-77
2022/10/19 00:54:15;;;;;;;;;;;;;;;14.97;100.00;100242.38;8350461;28;19940;-77
2022/10/19 00:58:16;;;;;;;;;;;;;;;14.95;100.00;100236.31;8315435;28;19929;-78
2022/10/19 01:02:18;;;;;;;;;;;;;;;14.89;100.00;100239.81;8342728;28;20134;-76
2022/10/19 01:06:20;;;;;;;;;;;;;;;14.85;100.00;100242.47;8350696;28;20284;-77
2022/10/19 01:10:24;;;;;;;;;;;;;;;14.76;100.00;100235.59;8349266;28;19933;-77
2022/10/19 01:14:44;;;;;;;;;;;;;;;14.66;100.00;100249.59;8341497;28;19929;-76
2022/10/19 01:19:16;;;;;;;;;;;;;;;14.60;100.00;100247.91;8322342;28;19929;-76
2022/10/19 01:23:37;;;;;;;;;;;;;;;14.57;100.00;100241.84;8347032;28;19967;-77
2022/10/19 01:27:38;;;;;;;;;;;;;;;14.50;100.00;100243.59;8350584;28;19959;-77
2022/10/19 01:31:42;;;;;;;;;;;;;;;14.46;100.00;100241.91;8323227;28;20316;-77
2022/10/19 01:35:47;;;;;;;;;;;;;;;14.41;100.00;100239.28;8351502;28;20694;-78
2022/10/19 01:39:58;;;;;;;;;;;;;;;14.38;100.00;100238.44;8319791;28;19986;-77
2022/10/19 01:44:05;;;;;;;;;;;;;;;14.31;100.00;100223.66;8326776;28;19933;-78
2022/10/19 01:48:13;;;;;;;;;;;;;;;14.21;100.00;100226.34;8330270;28;19929;-78
2022/10/19 01:52:17;;;;;;;;;;;;;;;14.10;100.00;100225.53;8349200;28;19971;-77
2022/10/19 01:56:20;;;;;;;;;;;;;;;13.94;100.00;100217.78;8329687;28;19986;-78
2022/10/19 02:00:22;;;;;;;;;;;;;;;13.84;100.00;100202.19;8342588;28;19933;-77
2022/10/19 02:04:24;;;;;;;;;;;;;;;13.80;100.00;100207.41;8324883;28;19935;-78
2022/10/19 02:08:29;;;;;;;;;;;;;;;13.71;100.00;100197.88;8343938;28;20701;-77
2022/10/19 02:12:31;;;;;;;;;;;;;;;13.58;100.00;100199.66;8323440;28;20012;-77
2022/10/19 02:16:39;;;;;;;;;;;;;;;13.47;100.00;100185.81;8333636;28;20640;-77
2022/10/19 02:20:40;;;;;;;;;;;;;;;13.38;100.00;100193.66;8336115;28;19929;-77
2022/10/19 02:24:42;;;;;;;;;;;;;;;13.23;100.00;100191.94;8337801;28;20543;-77
2022/10/19 02:28:43;;;;;;;;;;;;;;;13.18;100.00;100188.47;8359287;28;19929;-77
2022/10/19 02:32:44;;;;;;;;;;;;;;;13.17;100.00;100178.88;8343315;28;19971;-77
2022/10/19 02:36:47;;;;;;;;;;;;;;;13.17;100.00;100173.69;8322072;28;20290;-77
2022/10/19 02:41:04;;;;;;;;;;;;;;;13.20;100.00;100163.25;8303298;28;19929;-77
2022/10/19 02:45:12;;;;;;;;;;;;;;;13.24;100.00;100158.91;8319495;28;20043;-77
2022/10/19 02:49:14;;;;;;;;;;;;;;;13.33;100.00;100152.81;8319261;28;19976;-77
2022/10/19 02:53:15;;;;;;;;;;;;;;;13.40;100.00;100144.94;8320823;28;20436;-77
2022/10/19 02:57:18;;;;;;;;;;;;;;;13.46;100.00;100144.03;8323266;28;19937;-77
2022/10/19 03:01:20;;;;;;;;;;;;;;;13.46;100.00;100139.69;8309963;28;20271;-77
2022/10/19 03:05:21;;;;;;;;;;;;;;;13.46;100.00;100131.00;8320193;28;19937;-77
2022/10/19 03:09:22;;;;;;;;;;;;;;;13.35;100.00;100131.06;8323169;28;20013;-77
2022/10/19 03:13:24;;;;;;;;;;;;;;;13.28;100.00;100139.75;8317488;28;19929;-76
2022/10/19 03:17:25;;;;;;;;;;;;;;;13.30;100.00;100140.66;8301613;28;19934;-76
2022/10/19 03:21:27;;;;;;;;;;;;;;;13.34;100.00;100136.28;8289013;28;19929;-77
2022/10/19 03:25:28;;;;;;;;;;;;;;;13.36;100.00;100135.41;8314655;28;20596;-77
2022/10/19 03:29:29;;;;;;;;;;;;;;;13.41;100.00;100137.97;8314811;28;20091;-77
2022/10/19 03:33:30;;;;;;;;;;;;;;;13.46;100.00;100136.22;8309891;28;19951;-77
2022/10/19 03:37:32;;;;;;;;;;;;;;;13.51;100.00;100139.69;8324977;28;19933;-77
2022/10/19 03:41:35;;;;;;;;;;;;;;;13.55;100.00;100136.19;8332203;28;20653;-77
2022/10/19 03:45:36;;;;;;;;;;;;;;;13.60;100.00;100139.63;8321433;28;20296;-76
2022/10/19 03:49:37;;;;;;;;;;;;;;;13.65;100.00;100137.88;8314863;28;19928;-76
2022/10/19 03:53:41;;;;;;;;;;;;;;;13.69;100.00;100139.59;8335574;28;19933;-77
2022/10/19 03:57:42;;;;;;;;;;;;;;;13.73;100.00;100136.09;8340340;28;20160;-77
2022/10/19 04:01:44;;;;;;;;;;;;;;;13.75;100.00;100134.34;8325886;28;20054;-77
2022/10/19 04:05:45;;;;;;;;;;;;;;;13.79;100.00;100141.28;8317455;28;19928;-77
2022/10/19 04:09:47;;;;;;;;;;;;;;;13.81;100.00;100141.25;8323153;28;19990;-77
2022/10/19 04:13:49;;;;;;;;;;;;;;;13.80;100.00;100148.22;8326954;28;19986;-77
2022/10/19 04:17:50;;;;;;;;;;;;;;;13.82;100.00;100145.59;8335071;28;20015;-77
2022/10/19 04:21:52;;;;;;;;;;;;;;;13.83;100.00;100137.78;8347630;28;19929;-78
2022/10/19 04:26:00;;;;;;;;;;;;;;;13.86;100.00;100139.50;8335500;28;20254;-76
2022/10/19 04:30:02;;;;;;;;;;;;;;;13.89;100.00;100136.88;8342556;28;19932;-77
2022/10/19 04:34:03;;;;;;;;;;;;;;;13.91;100.00;100141.22;8342976;28;19982;-77
2022/10/19 04:38:04;;;;;;;;;;;;;;;13.94;100.00;100124.66;8342633;28;19937;-77
2022/10/19 04:42:06;;;;;;;;;;;;;;;13.97;100.00;100132.47;8353626;28;20006;-76
2022/10/19 04:46:13;;;;;;;;;;;;;;;13.98;100.00;100131.59;8324448;28;19979;-78
2022/10/19 04:50:14;;;;;;;;;;;;;;;14.01;100.00;100134.22;8319491;28;19929;-77
2022/10/19 04:54:15;;;;;;;;;;;;;;;14.05;100.00;100127.22;8331870;28;19932;-77
2022/10/19 04:58:16;;;;;;;;;;;;;;;14.06;100.00;100129.81;8330196;28;20396;-77
2022/10/19 05:02:18;;;;;;;;;;;;;;;14.06;100.00;100136.78;8330924;28;19935;-77
2022/10/19 05:06:20;;;;;;;;;;;;;;;14.08;100.00;100133.28;8341047;28;19929;-77
2022/10/19 05:10:21;;;;;;;;;;;;;;;14.07;100.00;100130.69;8321615;28;19990;-77
2022/10/19 05:14:22;;;;;;;;;;;;;;;14.07;100.00;100123.72;8347716;28;20087;-77
2022/10/19 05:18:24;;;;;;;;;;;;;;;14.12;100.00;100121.91;8309782;28;19933;-77
2022/10/19 05:22:25;;;;;;;;;;;;;;;14.12;100.00;100108.88;8335499;28;19996;-77
2022/10/19 05:26:27;;;;;;;;;;;;;;;14.14;100.00;100106.25;8330508;28;19981;-77
2022/10/19 05:30:29;;;;;;;;;;;;;;;14.16;100.00;100102.72;8324425;28;19929;-77
2022/10/19 05:34:30;;;;;;;;;;;;;;;14.18;100.00;100105.31;8333627;28;20602;-77
2022/10/19 05:38:32;;;;;;;;;;;;;;;14.18;100.00;100097.50;8344379;28;19928;-76
2022/10/19 05:42:33;;;;;;;;;;;;;;;14.18;100.00;100103.63;8339360;28;19968;-77
2022/10/19 05:46:35;;;;;;;;;;;;;;;14.18;100.00;100107.94;8344022;28;20002;-76
2022/10/19 05:50:37;;;;;;;;;;;;;;;14.17;100.00;100106.22;8342943;28;19929;-77
2022/10/19 05:54:38;;;;;;;;;;;;;;;14.17;100.00;100114.91;8332642;28;19991;-77
2022/10/19 05:58:42;;;;;;;;;;;;;;;14.16;100.00;100105.34;8347044;28;19933;-77
2022/10/19 06:02:44;;;;;;;;;;;;;;;14.16;100.00;100101.88;8311272;28;20466;-77
2022/10/19 06:06:45;;;;;;;;;;;;;;;14.17;100.00;100114.91;8341006;28;19929;-78
2022/10/19 06:10:47;;;;;;;;;;;;;;;14.16;100.00;100114.94;8330170;28;19952;-78
2022/10/19 06:14:51;;;;;;;;;;;;;;;14.14;100.00;100119.28;8313589;28;19932;-78
2022/10/19 06:18:54;;;;;;;;;;;;;;;14.13;100.00;100115.81;8319979;28;19936;-77
2022/10/19 06:22:55;;;;;;;;;;;;;;;14.12;100.00;100111.47;8341908;28;19987;-77
2022/10/19 06:26:56;;;;;;;;;;;;;;;14.12;100.00;100108.88;8347030;28;19929;-77
2022/10/19 06:30:58;;;;;;;;;;;;;;;14.13;100.00;100104.50;8352300;28;19994;-77
2022/10/19 06:34:59;;;;;;;;;;;;;;;14.13;100.00;100112.34;8331449;28;19925;-77
2022/10/19 06:39:00;;;;;;;;;;;;;;;14.15;100.00;100114.06;8336172;28;19982;-76
2022/10/19 06:43:02;;;;;;;;;;;;;;;14.16;100.00;100120.16;8328814;28;19929;-77
2022/10/19 06:47:03;;;;;;;;;;;;;;;14.20;100.00;100116.66;8342629;28;20417;-77
2022/10/19 06:51:08;;;;;;;;;;;;;;;14.24;100.00;100114.88;8339993;28;19928;-77
2022/10/19 06:55:09;;;;;;;;;;;;;;;14.31;100.00;100113.94;8327949;28;19940;-77
2022/10/19 06:59:12;;;;;;;;;;;;;;;14.37;100.00;100135.69;8346504;28;19929;-77
2022/10/19 07:03:15;;;;;;;;;;;;;;;14.42;100.00;100122.56;8329214;28;19929;-77
2022/10/19 07:07:16;;;;;;;;;;;;;;;14.48;100.00;100122.53;8331068;28;19990;-78
2022/10/19 07:11:18;;;;;;;;;;;;;;;14.55;100.00;100123.38;8350853;28;19990;-77
2022/10/19 07:15:20;;;;;;;;;;;;;;;14.62;100.00;100120.69;8306309;28;19960;-77
2022/10/19 07:19:24;;;;;;;;;;;;;;;14.72;100.00;100111.88;8333748;28;19928;-77
2022/10/19 07:23:27;;;;;;;;;;;;;;;14.89;100.00;100109.06;8343263;28;19940;-77
2022/10/19 07:27:28;;;;;;;;;;;;;;;15.17;100.00;100093.97;8346938;28;20450;-78
2022/10/19 07:31:35;;;;;;;;;;;;;;;15.42;100.00;100100.59;8336941;28;19932;-77
2022/10/19 07:35:36;;;;;;;;;;;;;;;15.49;98.89;100098.81;8311104;28;20443;-77
2022/10/19 07:39:38;;;;;;;;;;;;;;;15.56;98.05;100102.19;8317444;28;19933;-77
2022/10/19 07:43:40;;;;;;;;;;;;;;;15.61;97.25;100103.03;8309464;28;19955;-77
2022/10/19 07:47:45;;;;;;;;;;;;;;;15.64;96.78;100103.00;8286953;28;19929;-77
2022/10/19 07:51:52;;;;;;;;;;;;;;;15.69;96.44;100101.19;8315007;28;19929;-78
2022/10/19 07:56:01;;;;;;;;;;;;;;;15.75;96.31;100101.09;8302160;28;19979;-77
2022/10/19 08:00:02;;;;;;;;;;;;;;;15.79;95.96;100102.75;8313367;28;19928;-78
2022/10/19 08:04:04;;;;;;;;;;;;;;;15.79;95.33;100104.50;8317637;28;19929;-78
2022/10/19 08:08:25;;;;;;;;;;;;;;;15.80;95.11;100107.16;8325873;28;20729;-77
2022/10/19 08:12:27;;;;;;;;;;;;;;;15.80;94.90;100104.53;8315586;28;19954;-78
2022/10/19 08:16:32;;;;;;;;;;;;;;;15.81;95.43;100105.38;8317589;28;19929;-78
2022/10/19 08:20:34;;;;;;;;;;;;;;;15.83;95.67;100107.09;8317262;28;20463;-77
2022/10/19 08:24:35;;;;;;;;;;;;;;;15.88;95.22;100100.03;8320708;28;20401;-78
2022/10/19 08:28:36;;;;;;;;;;;;;;;15.95;94.98;100095.56;8306633;28;20452;-78
2022/10/19 08:32:38;;;;;;;;;;;;;;;16.00;94.66;100097.25;8333847;28;20337;-78
2022/10/19 08:36:40;;;;;;;;;;;;;;;16.05;94.58;100094.53;8344163;28;19939;-77
2022/10/19 08:40:43;;;;;;;;;;;;;;;16.07;93.58;100094.50;8347978;28;19968;-78
2022/10/19 08:45:06;;;;;;;;;;;;;;;16.06;92.85;100095.41;8336077;28;19978;-77
2022/10/19 08:49:17;;;;;;;;;;;;;;;16.02;92.61;100078.88;8332751;28;20423;-77
2022/10/19 08:53:36;;;;;;;;;;;;;;;15.99;92.65;100068.44;8339381;28;19929;-78
2022/10/19 08:57:52;;;;;;;;;;;;;;;15.99;92.52;100068.44;8336704;28;19936;-78
2022/10/19 09:01:57;;;;;;;;;;;;;;;15.98;93.05;100059.72;8315615;28;19929;-78
2022/10/19 09:06:13;;;;;;;;;;;;;;;15.97;92.39;100064.97;8338795;28;19933;-78
2022/10/19 09:10:15;;;;;;;;;;;;;;;15.94;92.27;100070.25;8331961;28;19924;-78
2022/10/19 09:14:24;;;;;;;;;;;;;;;15.94;92.35;100065.00;8312655;28;19928;-78
2022/10/19 09:18:27;;;;;;;;;;;;;;;15.94;92.21;100058.03;8337585;28;20443;-78
2022/10/19 09:22:31;;;;;;;;;;;;;;;15.93;92.07;100058.91;8333713;28;19933;-78
2022/10/19 09:26:38;;;;;;;;;;;;;;;15.92;92.20;100058.94;8345254;28;19925;-78
2022/10/19 09:30:50;;;;;;;;;;;;;;;15.89;92.66;100065.09;8329444;28;19929;-77
2022/10/19 09:35:01;;;;;;;;;;;;;;;15.96;92.44;100071.94;8313937;28;19925;-77
2022/10/19 09:39:03;;;;;;;;;;;;;;;15.97;92.18;100075.44;8330759;28;19974;-77
2022/10/19 09:43:18;;;;;;;;;;;;;;;16.00;92.61;100067.56;8351542;28;20388;-77
2022/10/19 09:47:31;;;;;;;;;;;;;;;16.05;92.42;100057.00;8342167;28;19962;-77
2022/10/19 09:51:43;;;;;;;;;;;;;;;16.11;92.25;100049.03;8322522;28;19985;-77
2022/10/19 09:55:52;;;;;;;;;;;;;;;16.27;91.55;100058.38;8328587;28;20571;-77
2022/10/19 09:59:53;;;;;;;;;;;;;;;16.35;90.66;100059.13;8326187;28;19933;-77
2022/10/19 10:04:04;;;;;;;;;;;;;;;16.41;90.46;100066.88;8309585;28;20024;-77
2022/10/19 10:08:13;;;;;;;;;;;;;;;16.47;89.90;100055.41;8343867;28;19974;-77
2022/10/19 10:12:15;;;;;;;;;;;;;;;16.54;89.86;100036.06;8334153;28;20691;-77
2022/10/19 10:16:17;;;;;;;;;;;;;;;16.69;89.76;100050.66;8323783;28;19990;-77
2022/10/19 10:20:26;;;;;;;;;;;;;;;16.77;89.03;100054.88;8347723;28;20600;-77
2022/10/19 10:24:29;;;;;;;;;;;;;;;16.89;89.13;100048.53;8327324;28;20019;-77
2022/10/19 10:28:31;;;;;;;;;;;;;;;16.97;88.00;100057.13;8317773;28;19941;-77
2022/10/19 10:32:35;;;;;;;;;;;;;;;17.01;87.64;100055.28;8329938;28;20014;-77
2022/10/19 10:36:37;;;;;;;;;;;;;;;17.08;87.73;100041.16;8318849;28;19929;-77
2022/10/19 10:40:39;;;;;;;;;;;;;;;17.11;87.40;100044.59;8310770;28;20034;-77
2022/10/19 10:44:45;;;;;;;;;;;;;;;17.16;86.87;100037.47;8328399;28;20256;-77
2022/10/19 10:49:01;;;;;;;;;;;;;;;17.32;87.07;100031.91;8317782;28;20022;-77
2022/10/19 10:53:04;;;;;;;;;;;;;;;17.46;86.25;100025.47;8324171;28;19940;-77
2022/10/19 10:57:14;;;;;;;;;;;;;;;17.69;85.65;100018.84;8320028;28;19929;-77
2022/10/19 11:01:20;;;;;;;;;;;;;;;17.88;84.51;100011.41;8319815;28;19992;-77
2022/10/19 11:05:22;;;;;;;;;;;;;;;18.04;83.25;99999.59;8320382;28;19935;-78
2022/10/19 11:09:35;;;;;;;;;;;;;;;18.32;82.49;100000.63;8313788;28;19979;-77
2022/10/19 11:13:42;;;;;;;;;;;;;;;18.51;81.38;99974.72;8311720;28;19955;-77
2022/10/19 11:17:56;;;;;;;;;;;;;;;18.67;80.34;99969.88;8309344;28;19991;-77
2022/10/19 11:22:03;;;;;;;;;;;;;;;18.83;80.75;99960.66;8321025;28;19929;-77
2022/10/19 11:26:23;;;;;;;;;;;;;;;18.99;79.35;99956.66;8313464;28;19964;-77
2022/10/19 11:30:25;;;;;;;;;;;;;;;18.95;78.40;99952.41;8302275;28;19929;-77
2022/10/19 11:34:26;;;;;;;;;;;;;;;18.94;78.24;99947.19;8305095;28;19936;-77
2022/10/19 11:38:34;;;;;;;;;;;;;;;18.92;78.50;99939.34;8344739;28;20384;-78
2022/10/19 11:42:39;;;;;;;;;;;;;;;18.88;78.16;99927.19;8345350;28;19933;-77
2022/10/19 11:46:49;;;;;;;;;;;;;;;18.80;77.94;99923.91;8323076;28;19929;-77
2022/10/19 11:51:10;;;;;;;;;;;;;;;18.72;78.36;99928.56;8333420;28;19959;-77
2022/10/19 11:55:26;;;;;;;;;;;;;;;18.73;78.70;99917.13;8345524;28;19932;-78
2022/10/19 11:59:45;;;;;;;;;;;;;;;18.89;78.37;99904.38;8345140;28;19929;-77
2022/10/19 12:03:59;;;;;;;;;;;;;;;19.07;77.84;99895.91;8320534;28;19958;-77
2022/10/19 12:08:12;;;;;;;;;;;;;;;19.14;77.09;99889.53;8331685;28;19929;-77
2022/10/19 12:12:13;;;;;;;;;;;;;;;19.13;77.19;99877.28;8331425;28;20015;-77
2022/10/19 12:16:16;;;;;;;;;;;;;;;19.12;76.84;99867.66;8343107;28;19933;-77
2022/10/19 12:20:25;;;;;;;;;;;;;;;19.19;76.59;99870.97;8333947;28;19986;-77
2022/10/19 12:24:28;;;;;;;;;;;;;;;19.22;77.06;99866.47;8340721;28;19929;-77
2022/10/19 12:28:31;;;;;;;;;;;;;;;19.30;76.37;99858.31;8323510;28;19960;-77
2022/10/19 12:32:38;;;;;;;;;;;;;;;19.34;75.63;99854.66;8333462;28;19929;-77
2022/10/19 12:36:49;;;;;;;;;;;;;;;19.37;75.85;99841.41;8343378;28;19929;-77
2022/10/19 12:40:50;;;;;;;;;;;;;;;19.41;75.82;99840.41;8340925;28;19929;-77
2022/10/19 12:45:00;;;;;;;;;;;;;;;19.43;75.55;99832.47;8318398;28;19928;-77
2022/10/19 12:49:28;;;;;;;;;;;;;;;19.46;75.40;99819.19;8330838;28;19967;-77
2022/10/19 12:53:34;;;;;;;;;;;;;;;19.46;75.31;99814.78;8346226;28;20003;-77
2022/10/19 12:57:37;;;;;;;;;;;;;;;19.52;75.18;99804.00;8344359;28;19929;-77
2022/10/19 13:01:43;;;;;;;;;;;;;;;19.59;74.67;99809.97;8326785;28;20545;-77
2022/10/19 13:05:54;;;;;;;;;;;;;;;19.64;74.66;99808.03;8328090;28;19933;-77
2022/10/19 13:10:00;;;;;;;;;;;;;;;19.70;74.08;99797.28;8331854;28;19933;-77
2022/10/19 13:14:24;;;;;;;;;;;;;;;19.72;73.72;99794.59;8346199;28;19991;-78
2022/10/19 13:18:44;;;;;;;;;;;;;;;19.71;73.29;99787.59;8338954;28;19933;-78
2022/10/19 13:22:46;;;;;;;;;;;;;;;19.62;73.69;99783.53;8345287;28;20604;-78
2022/10/19 13:27:08;;;;;;;;;;;;;;;19.53;73.19;99786.44;8345890;28;19944;-78
2022/10/19 13:31:29;;;;;;;;;;;;;;;19.48;73.70;99785.75;8323790;28;19981;-78
2022/10/19 13:35:31;;;;;;;;;;;;;;;19.44;74.24;99779.72;8317214;28;19933;-78
2022/10/19 13:39:37;;;;;;;;;;;;;;;19.47;74.38;99773.50;8316239;28;19929;-78
2022/10/19 13:43:57;;;;;;;;;;;;;;;19.48;74.79;99776.06;8322554;28;19929;-79
2022/10/19 13:48:10;;;;;;;;;;;;;;;19.47;74.79;99779.63;8342395;28;19929;-78
2022/10/19 13:52:50;;;;;;;;;;;;;;;19.46;74.76;99779.66;8345585;28;20009;-77
2022/10/19 13:57:05;;;;;;;;;;;;;;;19.43;74.56;99762.22;8176898;28;20655;-78
2022/10/19 14:01:09;;;;;;;;;;;;;;;19.39;74.61;99752.69;8275267;28;19933;-78
2022/10/19 14:05:33;;;;;;;;;;;;;;;19.43;74.97;99740.28;8336662;28;19940;-78
2022/10/19 14:09:53;;;;;;;;;;;;;;;19.49;74.54;99745.31;8341427;28;19947;-78
2022/10/19 14:14:10;;;;;;;;;;;;;;;19.54;74.49;99749.53;8343981;28;20472;-77
2022/10/19 14:18:22;;;;;;;;;;;;;;;19.51;74.47;99757.50;8320867;28;19933;-77
2022/10/19 14:22:33;;;;;;;;;;;;;;;19.46;74.47;99745.44;8346464;28;20495;-77
2022/10/19 14:26:34;;;;;;;;;;;;;;;19.41;74.99;99742.97;8326829;28;19925;-77
2022/10/19 14:30:36;;;;;;;;;;;;;;;19.35;74.54;99743.16;8312404;28;19935;-78
2022/10/19 14:34:39;;;;;;;;;;;;;;;19.19;74.22;99748.09;8282995;28;19940;-78
2022/10/19 14:38:44;;;;;;;;;;;;;;;19.05;74.20;99747.72;8329206;28;19929;-77
2022/10/19 14:42:46;;;;;;;;;;;;;;;18.95;74.66;99741.88;8341846;28;20358;-77
2022/10/19 14:46:47;;;;;;;;;;;;;;;18.94;74.62;99737.53;8306198;28;19943;-78
2022/10/19 14:50:52;;;;;;;;;;;;;;;18.90;74.35;99740.31;8324326;28;19929;-77
2022/10/19 14:54:55;;;;;;;;;;;;;;;18.79;74.56;99742.41;8308451;28;19929;-77
2022/10/19 14:59:01;;;;;;;;;;;;;;;18.67;75.12;99739.28;8312909;28;20777;-77
2022/10/19 15:03:05;;;;;;;;;;;;;;;18.54;75.20;99739.69;8336943;28;19929;-77
2022/10/19 15:07:36;;;;;;;;;;;;;;;18.37;75.71;99737.56;8306302;28;20368;-77
2022/10/19 15:11:39;;;;;;;;;;;;;;;18.26;76.50;99732.63;8307502;28;19932;-77
2022/10/19 15:15:40;;;;;;;;;;;;;;;18.21;76.71;99729.28;8344974;28;19929;-78
2022/10/19 15:19:42;;;;;;;;;;;;;;;18.11;76.96;99733.94;8328420;28;20102;-77
2022/10/19 15:23:44;;;;;;;;;;;;;;;18.04;77.22;99727.16;8332906;28;19991;-77
2022/10/19 15:27:48;;;;;;;;;;;;;;;17.95;77.40;99735.28;8339769;28;19929;-77
2022/10/19 15:31:55;;;;;;;;;;;;;;;17.87;77.76;99728.56;8320082;28;20375;-77
2022/10/19 15:36:04;;;;;;;;;;;;;;;17.76;78.02;99728.84;8296782;28;19928;-77
2022/10/19 15:40:12;;;;;;;;;;;;;;;17.62;78.77;99721.34;8311435;28;19933;-77
2022/10/19 15:44:38;;;;;;;;;;;;;;;17.48;79.44;99713.84;8306061;28;19936;-78
2022/10/19 15:48:46;;;;;;;;;;;;;;;17.35;79.82;99708.97;8321509;28;19934;-78
2022/10/19 15:52:53;;;;;;;;;;;;;;;17.24;79.88;99711.88;8313579;28;19933;-79
2022/10/19 15:56:56;;;;;;;;;;;;;;;17.15;80.30;99710.34;8303183;28;19933;-79
2022/10/19 16:00:57;;;;;;;;;;;;;;;17.05;80.64;99695.72;8315417;28;19929;-79
2022/10/19 16:04:59;;;;;;;;;;;;;;;16.94;81.16;99694.31;8318965;28;19929;-79
2022/10/19 16:09:00;;;;;;;;;;;;;;;16.85;81.43;99684.88;8318188;28;19928;-79
2022/10/19 16:13:02;;;;;;;;;;;;;;;16.79;81.57;99680.66;8320589;28;19933;-77
2022/10/19 16:17:03;;;;;;;;;;;;;;;16.72;81.53;99683.50;8327520;28;19928;-78
2022/10/19 16:21:05;;;;;;;;;;;;;;;16.65;81.44;99679.25;8336165;28;19999;-77
2022/10/19 16:25:06;;;;;;;;;;;;;;;16.53;81.89;99673.41;8321876;28;19925;-79
2022/10/19 16:29:08;;;;;;;;;;;;;;;16.46;81.78;99671.81;8303168;28;20003;-79
2022/10/19 16:33:09;;;;;;;;;;;;;;;16.38;82.44;99673.78;8303692;28;19944;-79
2022/10/19 16:37:10;;;;;;;;;;;;;;;16.28;82.68;99672.25;8294656;28;20339;-79
2022/10/19 16:41:12;;;;;;;;;;;;;;;16.21;83.03;99673.31;8310272;28;19967;-79
2022/10/19 16:45:13;;;;;;;;;;;;;;;16.10;83.55;99662.19;8312208;28;20000;-79
2022/10/19 16:49:15;;;;;;;;;;;;;;;16.04;83.74;99667.59;8312481;28;20302;-79
2022/10/19 16:53:16;;;;;;;;;;;;;;;15.97;84.14;99674.69;8311535;28;20653;-79
2022/10/19 16:57:18;;;;;;;;;;;;;;;15.91;84.17;99678.31;8327411;28;19933;-78
2022/10/19 17:01:19;;;;;;;;;;;;;;;15.83;85.00;99672.41;8299573;28;20362;-79
2022/10/19 17:05:21;;;;;;;;;;;;;;;15.79;84.57;99678.56;8312747;28;19939;-78
2022/10/19 17:09:23;;;;;;;;;;;;;;;15.73;84.69;99672.59;8306622;28;19929;-79
2022/10/19 17:13:46;;;;;;;;;;;;;;;15.60;84.83;99664.13;8310546;28;19956;-79
2022/10/19 17:17:48;;;;;;;;;;;;;;;15.53;85.08;99676.47;8304846;28;19936;-79
2022/10/19 17:21:49;;;;;;;;;;;;;;;15.45;85.29;99678.38;8295475;28;19987;-79
2022/10/19 17:25:51;;;;;;;;;;;;;;;15.40;86.02;99667.13;8311865;28;19929;-79
2022/10/19 17:29:52;;;;;;;;;;;;;;;15.35;86.41;99675.06;8312000;28;19991;-79
2022/10/19 17:33:53;;;;;;;;;;;;;;;15.27;86.29;99676.97;8316694;28;19929;-77
2022/10/19 17:37:55;;;;;;;;;;;;;;;15.23;86.27;99670.06;8339975;28;19932;-78
2022/10/19 17:42:00;;;;;;;;;;;;;;;15.18;87.39;99671.03;8339126;28;19981;-78
2022/10/19 17:46:04;;;;;;;;;;;;;;;15.05;87.44;99658.19;8312178;28;19933;-78
2022/10/19 17:50:05;;;;;;;;;;;;;;;15.01;87.79;99655.66;8337761;28;19933;-79
2022/10/19 17:54:08;;;;;;;;;;;;;;;14.96;88.12;99666.22;8360269;28;19932;-78
2022/10/19 17:58:09;;;;;;;;;;;;;;;14.93;88.51;99661.03;8343799;28;19929;-78
2022/10/19 18:02:11;;;;;;;;;;;;;;;14.91;88.79;99664.56;8311200;28;19987;-79
2022/10/19 18:06:14;;;;;;;;;;;;;;;14.88;88.83;99651.53;8329856;28;20273;-79
2022/10/19 18:10:16;;;;;;;;;;;;;;;14.85;89.13;99656.81;8333331;28;20387;-79
2022/10/19 18:14:17;;;;;;;;;;;;;;;14.85;89.48;99648.97;8350800;28;20010;-79
2022/10/19 18:18:19;;;;;;;;;;;;;;;14.83;89.89;99651.63;8328172;28;19971;-78
2022/10/19 18:22:20;;;;;;;;;;;;;;;14.82;90.13;99642.91;8329457;28;19952;-78
2022/10/19 18:26:23;;;;;;;;;;;;;;;14.77;90.41;99646.50;8331189;28;20353;-77
2022/10/19 18:30:24;;;;;;;;;;;;;;;14.74;90.85;99636.09;8343695;28;19937;-77
2022/10/19 18:34:26;;;;;;;;;;;;;;;14.74;91.33;99630.88;8311122;28;19933;-77
2022/10/19 18:38:28;;;;;;;;;;;;;;;14.71;91.71;99638.75;8329410;28;19929;-77
2022/10/19 18:42:29;;;;;;;;;;;;;;;14.71;91.87;99630.91;8328152;28;19932;-77
2022/10/19 18:46:31;;;;;;;;;;;;;;;14.66;92.35;99622.28;8319928;28;19937;-77
2022/10/19 18:50:33;;;;;;;;;;;;;;;14.61;92.85;99622.38;8311662;28;20005;-77
2022/10/19 18:54:34;;;;;;;;;;;;;;;14.59;93.28;99616.31;8348639;28;19994;-77
2022/10/19 18:58:38;;;;;;;;;;;;;;;14.58;93.49;99625.06;8333685;28;19943;-77
2022/10/19 19:02:39;;;;;;;;;;;;;;;14.52;93.70;99628.59;8323550;28;19986;-78
2022/10/19 19:06:47;;;;;;;;;;;;;;;14.52;93.94;99619.91;8328163;28;19924;-78
2022/10/19 19:10:48;;;;;;;;;;;;;;;14.47;94.33;99622.59;8347525;28;19933;-78
2022/10/19 19:14:50;;;;;;;;;;;;;;;14.48;94.37;99621.72;8324481;28;19929;-78
2022/10/19 19:18:52;;;;;;;;;;;;;;;14.46;94.34;99613.03;8337031;28;19929;-78
2022/10/19 19:22:53;;;;;;;;;;;;;;;14.45;94.57;99620.91;8344650;28;19929;-78
2022/10/19 19:26:56;;;;;;;;;;;;;;;14.40;94.81;99620.97;8333786;28;19929;-78
2022/10/19 19:30:58;;;;;;;;;;;;;;;14.36;95.05;99610.56;8312874;28;19932;-78
2022/10/19 19:34:59;;;;;;;;;;;;;;;14.36;95.33;99611.44;8346026;28;19936;-78
2022/10/19 19:39:01;;;;;;;;;;;;;;;14.33;95.19;99601.03;8311597;28;19928;-78
2022/10/19 19:43:02;;;;;;;;;;;;;;;14.32;95.42;99601.06;8318246;28;19929;-77
2022/10/19 19:47:04;;;;;;;;;;;;;;;14.30;95.48;99593.25;8326392;28;19929;-79
2022/10/19 19:51:10;;;;;;;;;;;;;;;14.27;95.51;99597.66;8351875;28;19929;-79
2022/10/19 19:55:11;;;;;;;;;;;;;;;14.24;95.82;99590.75;8353847;28;19935;-79
2022/10/19 19:59:13;;;;;;;;;;;;;;;14.21;95.67;99585.56;8333867;28;19987;-79
2022/10/19 20:03:15;;;;;;;;;;;;;;;14.19;96.04;99590.81;8352236;28;19935;-79
2022/10/19 20:07:16;;;;;;;;;;;;;;;14.17;95.84;99591.72;8351620;28;20553;-79
2022/10/19 20:11:18;;;;;;;;;;;;;;;14.17;95.95;99583.88;8343299;28;19925;-79
2022/10/19 20:15:19;;;;;;;;;;;;;;;14.13;95.71;99585.69;8323168;28;19924;-78
2022/10/19 20:19:21;;;;;;;;;;;;;;;14.11;95.84;99591.81;8351370;28;20015;-79
2022/10/19 20:23:22;;;;;;;;;;;;;;;14.07;95.69;99580.56;8326662;28;19971;-79
2022/10/19 20:27:24;;;;;;;;;;;;;;;14.03;95.87;99572.81;8337190;28;20395;-76
2022/10/19 20:31:26;;;;;;;;;;;;;;;13.99;96.01;99574.56;8324234;28;19929;-77
2022/10/19 20:35:28;;;;;;;;;;;;;;;13.96;95.97;99569.41;8314601;28;19974;-77
2022/10/19 20:39:29;;;;;;;;;;;;;;;13.94;95.61;99575.53;8333319;28;19990;-77
2022/10/19 20:43:31;;;;;;;;;;;;;;;13.90;95.94;99572.97;8335045;28;19932;-77
2022/10/19 20:47:32;;;;;;;;;;;;;;;13.86;96.13;99570.44;8325589;28;19929;-77
2022/10/19 20:51:37;;;;;;;;;;;;;;;13.83;96.37;99573.97;8330883;28;19928;-77
2022/10/19 20:55:39;;;;;;;;;;;;;;;13.81;96.29;99564.41;8346968;28;19937;-77
2022/10/19 20:59:42;;;;;;;;;;;;;;;13.80;96.43;99567.91;8326022;28;20032;-77